Terminal Aerodrome Forecast
Issued by NWS

Home | Current Version | Previous Version | Graphics & Text | Print | Product List | Glossary On
Versions: 1 2 3 4 5 6 7 8 9 10 11 12 13 14 15
000
FTUS43 KMPX 161127
TAFRWF
TAF
KRWF 161127Z 1612/1712 15007KT P6SM SCT050 BKN090
     FM161500 25007KT P6SM BKN050
     FM162200 28008KT P6SM SCT050 BKN200
     FM170100 31004KT P6SM SCT200=

USA.gov is the U.S. government's official web portal to all federal, state and local government web resources and services.